Main page
METAR-TAF:

METAR-TAF

Airports :

Madera Municipal Airport

Madera, California, United States

latitude: 36-59-12N, longitude: 120-06-39W, elevation: 253 ft

Current weather observation

The report was made 13 minutes ago, at 06:53 UTC
Wind 15 mph from the South/Southeast
Temperature 55°F
Humidity 77%
Pressure 29.89 in. Hg
Visibility: 10 miles
Broken clouds at a height of 4900 ft
Overcast at a height of 6000 ft

METAR: KMAE 020653Z AUTO 15013KT 10SM BKN049 OVC060 13/09 A2989 RMK AO2 SLP119 T01330089

Time: 23:06 (07:06 UTC)


TAF: missing

Weather observations and forecasts of more than 4000 airports (METAR and TAF reports).

The available stations are represented by yellow and red dots on the map.

Hover mouse over dot to see the name of the station.

Then click to see weather observations and forecasts.

To change the map : click on the green buttons with a black cross to zoom in, on the green button with a dash to zoom out, or on the green arrows for adjacent maps.


METAR-TAF: